createdAt,value
2023-11-14T00:01:25.761Z,12.50
2023-11-14T00:03:52.789Z,12.50
2023-11-14T00:06:19.701Z,12.60
2023-11-14T00:08:46.869Z,12.60
2023-11-14T00:11:13.883Z,12.60
2023-11-14T00:13:40.760Z,12.70
2023-11-14T00:16:08.200Z,12.60
2023-11-14T00:18:35.085Z,12.60
2023-11-14T00:21:02.000Z,12.60
2023-11-14T00:23:28.808Z,12.60
2023-11-14T00:25:55.677Z,12.60
2023-11-14T00:28:22.668Z,12.60
2023-11-14T00:30:49.596Z,12.70
2023-11-14T00:33:16.492Z,12.70
2023-11-14T00:35:44.705Z,12.70
2023-11-14T00:38:11.720Z,12.70
2023-11-14T00:40:40.355Z,12.70
2023-11-14T00:43:07.307Z,12.70
2023-11-14T00:45:34.280Z,12.80
2023-11-14T00:48:01.514Z,12.70
2023-11-14T00:50:28.378Z,12.70
2023-11-14T00:52:55.235Z,12.70
2023-11-14T00:55:22.227Z,12.80
2023-11-14T00:57:49.178Z,12.70
2023-11-14T01:00:16.533Z,12.70
2023-11-14T01:02:43.523Z,12.70
2023-11-14T01:05:10.657Z,12.70
2023-11-14T01:07:37.556Z,12.70
2023-11-14T01:10:05.868Z,12.70
2023-11-14T01:12:33.762Z,12.70
2023-11-14T01:15:01.932Z,12.70
2023-11-14T01:17:28.769Z,12.70
2023-11-14T01:19:55.647Z,12.70
2023-11-14T01:22:22.715Z,12.70
2023-11-14T01:24:49.629Z,12.70
2023-11-14T01:27:17.028Z,12.80
2023-11-14T01:29:47.730Z,12.80
2023-11-14T01:32:14.563Z,12.70
2023-11-14T01:34:44.058Z,12.70
2023-11-14T01:37:11.037Z,12.70
2023-11-14T01:39:37.842Z,12.70
2023-11-14T01:42:04.922Z,12.80
2023-11-14T01:44:31.680Z,12.80
2023-11-14T01:46:58.719Z,12.70
2023-11-14T01:49:28.782Z,12.70
2023-11-14T01:51:56.143Z,12.70
2023-11-14T01:54:23.064Z,12.70
2023-11-14T01:56:50.786Z,12.70
2023-11-14T01:59:18.882Z,12.70
2023-11-14T02:01:45.698Z,12.70
2023-11-14T02:04:17.149Z,12.70
2023-11-14T02:06:44.556Z,12.70
2023-11-14T02:09:12.188Z,12.60
2023-11-14T02:11:39.098Z,12.70
2023-11-14T02:14:09.282Z,12.60
2023-11-14T02:16:56.674Z,12.60
2023-11-14T02:19:24.346Z,12.60
2023-11-14T02:21:52.821Z,12.50
2023-11-14T02:24:21.837Z,12.50
2023-11-14T02:26:50.858Z,12.50
2023-11-14T02:29:20.425Z,12.50
2023-11-14T02:31:51.888Z,12.60
2023-11-14T02:34:19.143Z,12.50
2023-11-14T02:36:45.979Z,12.60
2023-11-14T02:39:14.405Z,12.60
2023-11-14T02:41:42.516Z,12.60
2023-11-14T02:44:09.833Z,12.50
2023-11-14T02:46:37.144Z,12.50
2023-11-14T02:49:19.600Z,12.50
2023-11-14T02:51:46.565Z,12.50
2023-11-14T02:54:13.972Z,12.50
2023-11-14T02:56:40.874Z,12.50
2023-11-14T02:59:07.901Z,12.60
2023-11-14T03:01:34.767Z,12.60
2023-11-14T03:04:01.640Z,12.60
2023-11-14T03:06:28.503Z,12.60
2023-11-14T03:08:55.311Z,12.60
2023-11-14T03:11:22.088Z,12.60
2023-11-14T03:13:49.614Z,12.60
2023-11-14T03:16:16.530Z,12.70
2023-11-14T03:18:43.550Z,12.60
2023-11-14T03:21:11.027Z,12.50
2023-11-14T03:23:37.824Z,12.50
2023-11-14T03:26:04.769Z,12.50
2023-11-14T03:28:32.268Z,12.40
2023-11-14T03:31:00.487Z,12.40
2023-11-14T03:33:27.440Z,12.30
2023-11-14T03:35:54.298Z,12.30
2023-11-14T03:38:21.328Z,12.20
2023-11-14T03:40:48.123Z,12.20
2023-11-14T03:43:17.094Z,12.20
2023-11-14T03:45:43.913Z,12.20
2023-11-14T03:48:11.314Z,12.10
2023-11-14T03:50:38.309Z,12.10
2023-11-14T03:53:05.515Z,12.10
2023-11-14T03:55:32.312Z,12.00
2023-11-14T03:57:59.033Z,12.00
2023-11-14T04:00:25.802Z,12.00
2023-11-14T04:02:52.549Z,12.10
2023-11-14T04:05:19.353Z,12.10
2023-11-14T04:07:46.308Z,12.10
2023-11-14T04:10:14.095Z,12.10
2023-11-14T04:12:40.979Z,12.20
2023-11-14T04:15:08.594Z,12.30
2023-11-14T04:17:35.790Z,12.20
2023-11-14T04:20:04.299Z,12.10
2023-11-14T04:22:33.733Z,12.10
2023-11-14T04:25:00.643Z,12.20
2023-11-14T04:27:27.514Z,12.20
2023-11-14T04:29:54.490Z,12.30
2023-11-14T04:32:21.631Z,12.20
2023-11-14T04:34:48.820Z,12.30
2023-11-14T04:37:15.703Z,12.30
2023-11-14T04:39:44.024Z,12.30
2023-11-14T04:42:12.279Z,12.30
2023-11-14T04:44:39.235Z,12.30
2023-11-14T04:47:07.305Z,12.40
2023-11-14T04:49:34.383Z,12.30
2023-11-14T04:52:01.403Z,12.30
2023-11-14T04:54:28.152Z,12.30
2023-11-14T04:56:55.229Z,12.40
2023-11-14T04:59:24.790Z,12.50
2023-11-14T05:01:51.640Z,12.50
2023-11-14T05:04:18.389Z,12.50
2023-11-14T05:06:47.886Z,12.60
2023-11-14T05:09:16.691Z,12.50
2023-11-14T05:11:44.625Z,12.50
2023-11-14T05:14:11.416Z,12.50
2023-11-14T05:16:42.647Z,12.50
2023-11-14T05:19:12.702Z,12.50
2023-11-14T05:21:40.057Z,12.40
2023-11-14T05:24:10.453Z,12.50
2023-11-14T05:26:37.319Z,12.40
2023-11-14T05:29:04.785Z,12.50
2023-11-14T05:31:34.641Z,12.40
2023-11-14T05:34:01.575Z,12.40
2023-11-14T05:36:29.174Z,12.40
2023-11-14T05:38:56.206Z,12.40
2023-11-14T05:41:22.935Z,12.40
2023-11-14T05:43:49.929Z,12.40
2023-11-14T05:46:16.835Z,12.40
2023-11-14T05:48:43.658Z,12.40
2023-11-14T05:51:13.684Z,12.40
2023-11-14T05:53:41.152Z,12.50
2023-11-14T05:56:08.187Z,12.40
2023-11-14T05:58:35.047Z,12.40
2023-11-14T06:01:02.647Z,12.40
2023-11-14T06:03:29.569Z,12.40
2023-11-14T06:05:57.622Z,12.50
2023-11-14T06:08:30.939Z,12.50
2023-11-14T06:10:59.021Z,12.40
2023-11-14T06:13:25.831Z,12.40
2023-11-14T06:15:53.449Z,12.40
2023-11-14T06:18:20.429Z,12.40
2023-11-14T06:20:47.206Z,12.40
2023-11-14T06:23:14.025Z,12.30
2023-11-14T06:25:40.890Z,12.30
2023-11-14T06:28:07.716Z,12.40
2023-11-14T06:30:36.926Z,12.40
2023-11-14T06:33:04.502Z,12.40
2023-11-14T06:35:31.434Z,12.40
2023-11-14T06:37:58.491Z,12.40
2023-11-14T06:40:25.357Z,12.40
2023-11-14T06:42:52.231Z,12.40
2023-11-14T06:45:19.039Z,12.50
2023-11-14T06:47:46.360Z,12.50
2023-11-14T06:50:22.553Z,12.50
2023-11-14T06:52:57.614Z,12.40
2023-11-14T06:55:24.353Z,12.30
2023-11-14T06:57:51.567Z,12.40
2023-11-14T07:00:18.856Z,12.40
2023-11-14T07:02:45.717Z,12.40
2023-11-14T07:05:12.696Z,12.40
2023-11-14T07:07:40.239Z,12.40
2023-11-14T07:10:08.085Z,12.40
2023-11-14T07:12:34.829Z,12.30
2023-11-14T07:15:01.618Z,12.30
2023-11-14T07:17:28.448Z,12.20
2023-11-14T07:19:56.077Z,12.10
2023-11-14T07:22:22.958Z,12.00
2023-11-14T07:24:49.715Z,12.00
2023-11-14T07:27:19.572Z,12.00
2023-11-14T07:29:47.209Z,12.00
2023-11-14T07:32:13.968Z,12.00
2023-11-14T07:34:40.790Z,12.00
2023-11-14T07:37:08.302Z,12.00
2023-11-14T07:39:35.083Z,12.00
2023-11-14T07:42:01.965Z,12.00
2023-11-14T07:44:28.744Z,11.90
2023-11-14T07:47:04.909Z,11.90
2023-11-14T07:49:40.058Z,12.00
2023-11-14T07:52:08.140Z,11.90
2023-11-14T07:54:34.997Z,12.00
2023-11-14T07:57:03.685Z,12.00
2023-11-14T07:59:31.461Z,12.00
2023-11-14T08:01:58.589Z,12.00
2023-11-14T08:04:28.944Z,12.00
2023-11-14T08:06:55.777Z,12.10
2023-11-14T08:09:22.618Z,12.10
2023-11-14T08:11:49.645Z,12.10
2023-11-14T08:14:16.736Z,12.00
2023-11-14T08:16:43.724Z,12.00
2023-11-14T08:19:12.116Z,12.10
2023-11-14T08:21:38.925Z,12.00
2023-11-14T08:24:08.602Z,12.10
2023-11-14T08:26:35.388Z,12.00
2023-11-14T08:29:02.237Z,12.00
2023-11-14T08:31:29.238Z,12.00
2023-11-14T08:33:56.497Z,12.00
2023-11-14T08:36:23.376Z,11.90
2023-11-14T08:38:50.178Z,11.90
2023-11-14T08:41:17.734Z,11.90
2023-11-14T08:43:44.512Z,11.90
2023-11-14T08:46:12.508Z,11.90
2023-11-14T08:48:39.382Z,11.90
2023-11-14T08:51:06.173Z,12.00
2023-11-14T08:53:33.186Z,11.90
2023-11-14T08:56:00.159Z,12.00
2023-11-14T08:58:26.954Z,12.00
2023-11-14T09:00:56.363Z,11.90
2023-11-14T09:03:23.886Z,12.00
2023-11-14T09:05:50.810Z,12.00
2023-11-14T09:08:20.489Z,12.00
2023-11-14T09:10:49.466Z,12.00
2023-11-14T09:13:18.946Z,12.10
2023-11-14T09:15:45.924Z,12.10
2023-11-14T09:18:12.853Z,12.10
2023-11-14T09:20:39.669Z,12.20
2023-11-14T09:23:06.693Z,12.20
2023-11-14T09:25:34.223Z,12.30
2023-11-14T09:28:02.285Z,12.20
2023-11-14T09:30:29.382Z,12.30
2023-11-14T09:32:56.214Z,12.40
2023-11-14T09:35:23.062Z,12.40
2023-11-14T09:37:50.873Z,12.40
2023-11-14T09:40:22.193Z,12.30
2023-11-14T09:42:50.875Z,12.40
2023-11-14T09:45:21.802Z,12.40
2023-11-14T09:47:50.838Z,12.40
2023-11-14T09:50:18.890Z,12.40
2023-11-14T09:52:46.550Z,12.40
2023-11-14T09:55:13.410Z,12.30
2023-11-14T09:57:40.816Z,12.30
2023-11-14T10:00:12.744Z,12.40
2023-11-14T10:02:41.616Z,12.40
2023-11-14T10:05:14.652Z,12.50
2023-11-14T10:07:44.526Z,12.50
2023-11-14T10:10:13.145Z,12.40
2023-11-14T10:12:40.872Z,12.50
2023-11-14T10:15:11.402Z,12.50
2023-11-14T10:17:47.134Z,12.50
2023-11-14T10:20:15.280Z,12.60
2023-11-14T10:22:48.905Z,12.60
2023-11-14T10:25:26.101Z,12.70
2023-11-14T10:28:01.178Z,12.70
2023-11-14T10:30:48.489Z,12.80
2023-11-14T10:33:16.723Z,13.00
2023-11-14T10:35:46.246Z,13.00
2023-11-14T10:38:23.746Z,13.00
2023-11-14T10:40:53.515Z,13.00
2023-11-14T10:43:50.034Z,13.00
2023-11-14T10:46:16.840Z,13.10
2023-11-14T10:48:43.702Z,13.20
2023-11-14T10:51:12.946Z,13.40
2023-11-14T10:53:40.906Z,13.60
2023-11-14T10:56:09.343Z,13.70
2023-11-14T10:58:38.394Z,13.70
2023-11-14T11:01:07.428Z,13.60
2023-11-14T11:03:35.397Z,13.60
2023-11-14T11:06:04.198Z,13.60
2023-11-14T11:08:30.997Z,13.70
2023-11-14T11:10:58.266Z,13.80
2023-11-14T11:13:28.086Z,13.90
2023-11-14T11:15:56.668Z,14.00
2023-11-14T11:18:37.139Z,14.00
2023-11-14T11:21:14.914Z,13.90
2023-11-14T11:24:10.627Z,13.80
2023-11-14T11:27:26.314Z,13.70
2023-11-14T11:30:00.542Z,13.70
2023-11-14T11:32:36.073Z,13.70
2023-11-14T11:35:19.531Z,13.70
2023-11-14T11:37:57.423Z,13.60
2023-11-14T11:40:29.245Z,13.60
2023-11-14T11:42:58.598Z,13.60
2023-11-14T11:45:32.934Z,13.60
2023-11-14T11:48:02.182Z,13.50
2023-11-14T11:50:30.520Z,13.60
2023-11-14T11:53:07.205Z,13.60
2023-11-14T11:55:36.339Z,13.60
2023-11-14T11:58:09.552Z,13.50
2023-11-14T12:00:36.920Z,13.60
2023-11-14T12:03:05.818Z,13.60
2023-11-14T12:05:34.539Z,13.50
2023-11-14T12:08:05.570Z,13.50
2023-11-14T12:10:32.536Z,13.50
2023-11-14T12:12:59.553Z,13.50
2023-11-14T12:15:28.072Z,13.50
2023-11-14T12:17:56.102Z,13.50
2023-11-14T12:20:25.594Z,13.50
2023-11-14T12:22:53.921Z,13.50
2023-11-14T12:25:22.377Z,13.50
2023-11-14T12:28:01.440Z,13.50
2023-11-14T12:30:29.511Z,13.50
2023-11-14T12:33:08.464Z,13.50
2023-11-14T12:35:50.141Z,13.50
2023-11-14T12:38:28.128Z,13.50
2023-11-14T12:41:18.401Z,13.40
2023-11-14T12:43:48.314Z,13.40
2023-11-14T12:46:25.756Z,13.40
2023-11-14T12:49:10.718Z,13.40
2023-11-14T12:51:39.794Z,13.40
2023-11-14T12:54:06.965Z,13.40
2023-11-14T12:56:34.324Z,13.30
2023-11-14T12:59:01.379Z,13.30
2023-11-14T13:01:29.184Z,13.20
2023-11-14T13:03:56.272Z,13.10
2023-11-14T13:06:23.542Z,13.10
2023-11-14T13:08:50.653Z,13.00
2023-11-14T13:11:17.496Z,13.00
2023-11-14T13:13:44.384Z,12.90
2023-11-14T13:16:11.302Z,12.80
2023-11-14T13:18:38.370Z,12.80
2023-11-14T13:21:05.573Z,12.80
2023-11-14T13:23:32.481Z,12.80
2023-11-14T13:26:07.474Z,12.80
2023-11-14T13:28:35.397Z,12.70
2023-11-14T13:31:05.858Z,12.70
2023-11-14T13:33:32.887Z,12.60
2023-11-14T13:35:59.999Z,12.60
2023-11-14T13:38:27.058Z,12.60
2023-11-14T13:40:57.777Z,12.60
2023-11-14T13:43:24.629Z,12.50
2023-11-14T13:45:51.899Z,12.50
2023-11-14T13:48:19.685Z,12.50
2023-11-14T13:50:47.769Z,12.40
2023-11-14T13:53:15.204Z,12.40
2023-11-14T13:55:42.799Z,12.30
2023-11-14T13:58:09.666Z,12.30
2023-11-14T14:00:36.727Z,12.20
2023-11-14T14:03:03.667Z,12.20
2023-11-14T14:05:30.558Z,12.20
2023-11-14T14:07:57.551Z,12.20
2023-11-14T14:10:26.530Z,12.20
2023-11-14T14:12:53.349Z,12.10
2023-11-14T14:15:20.275Z,12.10
2023-11-14T14:17:48.526Z,12.10
2023-11-14T14:20:17.734Z,12.00
2023-11-14T14:22:51.497Z,12.00
2023-11-14T14:25:19.317Z,12.00
2023-11-14T14:27:46.221Z,12.10
2023-11-14T14:30:15.399Z,12.00
2023-11-14T14:32:42.773Z,12.00
2023-11-14T14:35:10.149Z,12.00
2023-11-14T14:37:38.537Z,11.90
2023-11-14T14:40:07.339Z,11.90
2023-11-14T14:42:41.191Z,11.90
2023-11-14T14:45:09.501Z,11.90
2023-11-14T14:47:40.574Z,11.90
2023-11-14T14:50:09.812Z,11.80
2023-11-14T14:52:43.025Z,11.80
2023-11-14T14:55:11.231Z,11.80
2023-11-14T14:57:38.259Z,11.80
2023-11-14T15:00:15.271Z,11.70
2023-11-14T15:02:43.131Z,11.70
2023-11-14T15:05:11.523Z,11.80
2023-11-14T15:07:41.261Z,11.70
2023-11-14T15:10:09.450Z,11.70
2023-11-14T15:12:36.239Z,11.60
2023-11-14T15:15:09.027Z,11.50
2023-11-14T15:17:36.293Z,11.50
2023-11-14T15:20:09.606Z,11.50
2023-11-14T15:22:39.402Z,11.40
2023-11-14T15:25:07.742Z,11.40
2023-11-14T15:27:35.062Z,11.40
2023-11-14T15:30:04.018Z,11.40
2023-11-14T15:32:31.953Z,11.40
2023-11-14T15:34:59.735Z,11.30
2023-11-14T15:37:26.730Z,11.30
2023-11-14T15:39:53.502Z,11.20
2023-11-14T15:42:21.223Z,11.10
2023-11-14T15:44:48.841Z,11.20
2023-11-14T15:47:16.003Z,11.20
2023-11-14T15:49:42.812Z,11.20
2023-11-14T15:52:09.621Z,11.20
2023-11-14T15:54:38.348Z,11.10
2023-11-14T15:57:06.404Z,11.10
2023-11-14T15:59:34.324Z,11.10
2023-11-14T16:02:05.091Z,11.10
2023-11-14T16:04:32.774Z,11.10
2023-11-14T16:06:59.893Z,11.10
2023-11-14T16:09:27.378Z,11.10
2023-11-14T16:11:54.869Z,11.10
2023-11-14T16:14:24.903Z,11.10
2023-11-14T16:16:52.051Z,11.20
2023-11-14T16:19:22.111Z,11.20
2023-11-14T16:21:49.549Z,11.20
2023-11-14T16:24:16.589Z,11.20
2023-11-14T16:26:43.328Z,11.20
2023-11-14T16:29:10.226Z,11.20
2023-11-14T16:31:38.479Z,11.30
2023-11-14T16:34:06.362Z,11.20
2023-11-14T16:36:36.737Z,11.20
2023-11-14T16:39:03.806Z,11.10
2023-11-14T16:41:32.175Z,11.00
2023-11-14T16:43:59.023Z,10.90
2023-11-14T16:46:26.324Z,10.90
2023-11-14T16:48:53.173Z,10.90
2023-11-14T16:51:21.910Z,10.80
2023-11-14T16:53:49.605Z,10.80
2023-11-14T16:56:16.770Z,10.80
2023-11-14T16:58:43.608Z,10.70
2023-11-14T17:01:10.536Z,10.70
2023-11-14T17:03:38.318Z,10.70
2023-11-14T17:06:37.312Z,10.80
2023-11-14T17:09:04.428Z,10.70
2023-11-14T17:11:31.442Z,10.60
2023-11-14T17:13:58.355Z,10.70
2023-11-14T17:16:25.277Z,10.60
2023-11-14T17:18:52.369Z,10.60
2023-11-14T17:21:24.922Z,10.60
2023-11-14T17:23:52.416Z,10.60
2023-11-14T17:26:21.817Z,10.60
2023-11-14T17:28:48.945Z,10.60
2023-11-14T17:31:15.877Z,10.60
2023-11-14T17:33:42.700Z,10.60
2023-11-14T17:36:09.754Z,10.60
2023-11-14T17:38:36.717Z,10.60
2023-11-14T17:41:05.112Z,10.60
2023-11-14T17:43:32.334Z,10.60
2023-11-14T17:45:59.162Z,10.70
2023-11-14T17:48:26.124Z,10.60
2023-11-14T17:50:54.042Z,10.60
2023-11-14T17:53:20.931Z,10.60
2023-11-14T17:55:48.199Z,10.60
2023-11-14T17:58:15.073Z,10.70
2023-11-14T18:00:42.224Z,10.70
2023-11-14T18:03:09.378Z,10.60
2023-11-14T18:05:36.494Z,10.60
2023-11-14T18:08:08.081Z,10.60
2023-11-14T18:10:35.881Z,10.60
2023-11-14T18:13:03.767Z,10.60
2023-11-14T18:15:33.135Z,10.60
2023-11-14T18:18:00.655Z,10.60
2023-11-14T18:20:30.568Z,10.70
2023-11-14T18:22:57.684Z,10.60
2023-11-14T18:25:24.613Z,10.70
2023-11-14T18:27:51.429Z,10.70
2023-11-14T18:30:18.448Z,10.80
2023-11-14T18:32:51.206Z,10.70
2023-11-14T18:35:19.417Z,10.70
2023-11-14T18:37:46.484Z,10.70
2023-11-14T18:40:14.647Z,10.70
2023-11-14T18:42:43.709Z,10.70
2023-11-14T18:45:11.716Z,10.60
2023-11-14T18:47:39.891Z,10.70
2023-11-14T18:50:09.867Z,10.60
2023-11-14T18:52:37.164Z,10.70
2023-11-14T18:55:05.169Z,10.70
2023-11-14T18:57:32.360Z,10.80
2023-11-14T18:59:59.677Z,10.70
2023-11-14T19:02:29.083Z,10.80
2023-11-14T19:04:56.119Z,10.80
2023-11-14T19:07:27.717Z,10.80
2023-11-14T19:09:55.812Z,10.70
2023-11-14T19:12:24.366Z,10.80
2023-11-14T19:14:53.056Z,10.70
2023-11-14T19:17:20.891Z,10.70
2023-11-14T19:19:48.183Z,10.80
2023-11-14T19:22:41.708Z,10.80
2023-11-14T19:27:31.878Z,10.70
2023-11-14T19:29:58.909Z,10.70
2023-11-14T19:32:26.143Z,10.70
2023-11-14T19:34:53.287Z,10.70
2023-11-14T19:37:20.390Z,10.70
2023-11-14T19:39:47.334Z,10.70
2023-11-14T19:42:16.658Z,10.70
2023-11-14T19:44:44.571Z,10.70
2023-11-14T19:47:11.448Z,10.70
2023-11-14T19:49:44.986Z,10.70
2023-11-14T19:52:14.332Z,10.70
2023-11-14T19:54:41.643Z,10.70
2023-11-14T19:57:09.330Z,10.60
2023-11-14T19:59:36.956Z,10.70
2023-11-14T20:02:04.699Z,10.70
2023-11-14T20:04:53.532Z,10.70
2023-11-14T20:10:49.807Z,10.70
2023-11-14T20:13:19.630Z,10.70
2023-11-14T20:16:00.786Z,10.70
2023-11-14T20:18:35.138Z,10.70
2023-11-14T20:21:02.423Z,10.70
2023-11-14T20:23:29.384Z,10.70
2023-11-14T20:25:56.466Z,10.70
2023-11-14T20:28:26.476Z,10.60
2023-11-14T20:30:53.398Z,10.60
2023-11-14T20:33:22.849Z,10.70
2023-11-14T20:35:50.304Z,10.60
2023-11-14T20:38:17.179Z,10.70
2023-11-14T20:40:44.115Z,10.70
2023-11-14T20:43:11.800Z,10.70
2023-11-14T20:45:38.546Z,10.70
2023-11-14T20:48:05.914Z,10.70
2023-11-14T20:50:32.838Z,10.70
2023-11-14T20:53:00.803Z,10.70
2023-11-14T20:55:27.855Z,10.70
2023-11-14T20:57:57.385Z,10.70
2023-11-14T21:00:34.471Z,10.60
2023-11-14T21:03:01.694Z,10.70
2023-11-14T21:05:28.887Z,10.70
2023-11-14T21:07:55.642Z,10.60
2023-11-14T21:10:22.535Z,10.60
2023-11-14T21:12:49.346Z,10.60
2023-11-14T21:15:16.477Z,10.50
2023-11-14T21:17:50.585Z,10.50
2023-11-14T21:20:21.131Z,10.50
2023-11-14T21:22:48.364Z,10.50
2023-11-14T21:25:15.621Z,10.50
2023-11-14T21:27:42.609Z,10.70
2023-11-14T21:30:10.444Z,10.60
2023-11-14T21:32:40.388Z,10.60
2023-11-14T21:35:09.393Z,10.60
2023-11-14T21:37:37.288Z,10.60
2023-11-14T21:40:04.481Z,10.60
2023-11-14T21:42:31.372Z,10.60
2023-11-14T21:45:00.283Z,10.60
2023-11-14T21:47:28.277Z,10.60
2023-11-14T21:49:55.908Z,10.60
2023-11-14T21:52:22.699Z,10.60
2023-11-14T21:54:49.390Z,10.60
2023-11-14T21:57:16.145Z,10.60
2023-11-14T21:59:42.985Z,10.60
2023-11-14T22:02:09.801Z,10.60
2023-11-14T22:04:36.557Z,10.60
2023-11-14T22:07:03.582Z,10.50
2023-11-14T22:09:31.397Z,10.50
2023-11-14T22:11:58.266Z,10.50
2023-11-14T22:14:25.167Z,10.50
2023-11-14T22:16:51.998Z,10.40
2023-11-14T22:19:18.854Z,10.40
2023-11-14T22:21:45.661Z,10.40
2023-11-14T22:24:12.687Z,10.40
2023-11-14T22:26:39.576Z,10.30
2023-11-14T22:29:06.555Z,10.30
2023-11-14T22:31:33.526Z,10.30
2023-11-14T22:34:00.422Z,10.30
2023-11-14T22:36:27.176Z,10.30
2023-11-14T22:38:53.938Z,10.20
2023-11-14T22:41:23.766Z,10.20
2023-11-14T22:43:53.678Z,10.20
2023-11-14T22:46:21.303Z,10.20
2023-11-14T22:48:48.702Z,10.20
2023-11-14T22:51:15.514Z,10.20
2023-11-14T22:53:42.320Z,10.20
2023-11-14T22:56:20.592Z,10.20
2023-11-14T22:58:47.952Z,10.20
2023-11-14T23:01:15.709Z,10.20
2023-11-14T23:03:44.034Z,10.20
2023-11-14T23:06:17.174Z,10.20
2023-11-14T23:08:45.075Z,10.20
2023-11-14T23:11:12.462Z,10.20
2023-11-14T23:13:40.465Z,10.20
2023-11-14T23:16:09.882Z,10.20
2023-11-14T23:18:39.651Z,10.20
2023-11-14T23:21:12.749Z,10.20
2023-11-14T23:23:39.652Z,10.20
2023-11-14T23:26:11.535Z,10.20
2023-11-14T23:28:38.509Z,10.20
2023-11-14T23:31:05.538Z,10.20
2023-11-14T23:33:32.337Z,10.20
2023-11-14T23:35:59.092Z,10.20
2023-11-14T23:38:25.981Z,10.20
2023-11-14T23:40:52.836Z,10.20
2023-11-14T23:43:19.812Z,10.20
2023-11-14T23:45:49.390Z,10.20
2023-11-14T23:48:16.985Z,10.20
2023-11-14T23:50:44.779Z,10.20
2023-11-14T23:53:12.182Z,10.20
2023-11-14T23:55:40.523Z,10.30
2023-11-14T23:58:08.382Z,10.30
